• Join FlightAware (Why Join?)
  • Login
  • US Flag 
04:23AM EDT


 

Airport Tracker/Info


-or-


 

Live Flight TrackerFlight Track Log ✈ ASQ4577 ✈ 15-Jul-2013 ✈ KCLE - KALB

Flight Track Log - Related Links

Times and Time Zones

All times are in EDT time to prevent confusion due to time zone crossing. See the ASQ4577 flight status page for this flight to view local times or setup timezone preferences in your user account.

Time Position Orientation Groundspeed Altitude Reporting Facility
EDT Latitude Longitude Course Direction KTS MPH feet Rate Location/Type
07:06PM 41.4194 -81.8375 28° Northeast 163 188 1,900  Level Cleveland Center
07:07PM 41.4697 -81.8025 28° Northeast 237 273 3,200 1,740 Climbing Cleveland Center
07:08PM 41.5308 -81.7508 32° Northeast 280 322 5,300 2,340 Climbing Cleveland Center
07:09PM 41.5919 -81.6881 38° Northeast 279 321 7,900 2,760 Climbing Cleveland Center
07:10PM 41.6508 -81.6253 39° Northeast 268 308 10,900 2,040 Climbing Cleveland Center
07:11PM 41.6767 -81.5228 71° East 275 316 12,000 1,020 Climbing Cleveland Center
07:12PM 41.7006 -81.4008 75° East 308 354 13,000 960 Climbing Cleveland Center
07:13PM 41.7222 -81.2703 77° East 350 403 14,000 900 Climbing Cleveland Center
07:14PM 41.7417 -81.1508 78° East 364 419 14,800 840 Climbing Cleveland Center
07:15PM 41.7675 -81.0092 76° East 381 438 15,700 1,080 Climbing Cleveland Center
07:16PM 41.7908 -80.8728 77° East 375 432 17,000 1,200 Climbing Cleveland Center
07:17PM 41.8119 -80.7364 78° East 370 426 18,200 1,380 Climbing Cleveland Center
07:18PM 41.8369 -80.6083 75° East 370 426 19,800 1,500 Climbing Cleveland Center
07:19PM 41.8975 -80.4967 54° Northeast 358 412 21,200 1,320 Climbing Cleveland Center
07:20PM 41.9619 -80.3736 55° Northeast 358 412 22,500 1,320 Climbing Cleveland Center
07:21PM 42.0261 -80.2617 52° Northeast 372 428 23,900 1,320 Climbing Cleveland Center
07:22PM 42.0528 -80.1244 75° East 365 420 25,200 1,200 Climbing Cleveland Center
07:23PM 42.0669 -80.0153 80° East 365 420 26,300 1,020 Climbing Cleveland Center
07:24PM 42.0892 -79.8614 79° East 371 427 27,300 1,200 Climbing Cleveland Center
07:25PM 42.1069 -79.7156 81° East 382 440 28,700 1,500 Climbing Cleveland Center
07:26PM 42.1286 -79.5781 78° East 382 440 30,300 1,140 Climbing Cleveland Center
07:27PM 42.1481 -79.4350 80° East 382 440 31,000 300 Climbing Cleveland Center
07:28PM 42.1672 -79.2833 80° East 394 453 31,000  Level Cleveland Center
07:29PM 42.1883 -79.1231 80° East 408 470 31,000  Level Cleveland Center
07:30PM 42.2092 -78.9572 80° East 434 499 31,000  Level Cleveland Center
07:31PM 42.2294 -78.7914 81° East 441 507 31,000  Level Cleveland Center
07:32PM 42.2519 -78.6253 80° East 446 513 31,000  Level Cleveland Center
07:33PM 42.2717 -78.4561 81° East 446 513 31,000  Level Cleveland Center
07:34PM 42.2917 -78.2928 81° East 446 513 31,000  Level Cleveland Center
07:35PM 42.3131 -78.1233 80° East 446 513 31,000  Level Cleveland Center
07:36PM 42.3322 -77.9542 81° East 446 513 31,000  Level Cleveland Center
07:37PM 42.3514 -77.7875 81° East 451 519 31,000  Level Cleveland Center
07:38PM 42.3719 -77.6153 81° East 451 519 31,000  Level Cleveland Center
07:39PM 42.3925 -77.4456 81° East 451 519 31,000  Level Cleveland Center
07:40PM 42.4122 -77.2589 82° East 451 519 31,000 -240 Level Cleveland Center
07:42PM 42.4556 -76.8731 81° East 450 518 30,400 -480 Descending Boston Center
07:43PM 42.4744 -76.7081 81° East 450 518 29,500 -720 Descending Boston Center
07:44PM 42.4931 -76.5433 81° East 445 512 29,000 -300 Descending Boston Center
07:45PM 42.5086 -76.3978 82° East 445 512 29,000  Level Boston Center
07:46PM 42.5250 -76.2183 83° East 445 512 29,000  Level Boston Center
07:47PM 42.5411 -76.0475 83° East 445 512 29,000  Level Boston Center
07:48PM 42.5589 -75.8792 82° East 445 512 29,000  Level Boston Center
07:49PM 42.5764 -75.7111 82° East 445 512 29,000 -780 Level Boston Center
07:50PM 42.5936 -75.5425 82° East 445 512 27,500 -2,100 Descending Boston Center
07:51PM 42.6106 -75.3742 82° East 445 512 24,900 -2,760 Descending Boston Center
07:52PM 42.6250 -75.2083 83° East 445 512 22,000 -2,880 Descending Boston Center
07:53PM 42.6392 -75.0508 83° East 439 505 19,200 -2,640 Descending Boston Center
07:54PM 42.6553 -74.8992 82° East 420 483 16,800 -2,760 Descending Boston Center
07:55PM 42.6667 -74.7442 84° East 406 467 13,700 -2,700 Descending Boston Center
07:56PM 42.6800 -74.6036 83° East 394 453 11,400 -1,440 Descending Boston Center
07:57PM 42.6906 -74.4739 84° East 363 418 11,000 -600 Descending Boston Center
07:58PM 42.6781 -74.3578 98° East 327 376 10,400 -1,020 Descending Boston Center
07:59PM 42.6544 -74.2667 109° East 283 326 9,200 -1,620 Descending Boston Center
08:00PM 42.6250 -74.1614 111° Southeast 277 319 7,300 -1,800 Descending Boston Center
08:01PM 42.6203 -74.0597 94° East 263 303 5,600 -1,740 Descending Boston Center
08:02PM 42.6217 -73.9608 89° East 260 299 3,800 -1,260 Descending Boston Center
08:03PM 42.6269 -73.8764 85° East 223 257 3,100 -1,020 Descending Boston Center
08:04PM 42.6567 -73.8150 57° Northeast 142 163 1,700 -1,260 Descending Boston Center